createdAt,value
2022-11-16T08:43:36.112Z,14.80
2022-11-16T08:46:05.680Z,14.70
2022-11-16T08:48:35.382Z,14.30
2022-11-16T08:51:21.449Z,14.40
2022-11-16T08:53:58.364Z,14.20
2022-11-16T08:56:30.301Z,14.10
2022-11-16T08:59:00.799Z,13.80
2022-11-16T09:01:31.674Z,13.60
2022-11-16T09:04:01.145Z,13.50
2022-11-16T09:06:29.919Z,13.20
2022-11-16T09:08:58.713Z,13.20
2022-11-16T09:11:27.704Z,12.90
2022-11-16T09:13:57.327Z,12.80
2022-11-16T09:16:28.125Z,12.80
2022-11-16T09:18:57.109Z,12.90
2022-11-16T09:21:27.432Z,13.00
2022-11-16T09:23:57.475Z,13.10
2022-11-16T09:26:27.409Z,13.10
2022-11-16T09:28:58.265Z,13.30
2022-11-16T09:31:29.073Z,13.50
2022-11-16T09:33:59.372Z,13.50
2022-11-16T09:36:29.013Z,13.60
2022-11-16T09:42:08.498Z,13.90
2022-11-16T09:44:57.640Z,14.10
2022-11-16T09:47:39.862Z,14.80
2022-11-16T09:50:18.457Z,15.50
2022-11-16T09:52:50.668Z,16.00
2022-11-16T09:55:25.989Z,16.30
2022-11-16T09:57:58.079Z,16.50
2022-11-16T10:00:26.784Z,17.00
2022-11-16T10:03:03.974Z,17.10
2022-11-16T10:05:38.800Z,17.30
2022-11-16T10:08:14.414Z,17.40
2022-11-16T10:10:51.697Z,17.50
2022-11-16T10:13:33.228Z,17.30
2022-11-16T10:16:09.456Z,17.60
2022-11-16T10:18:53.616Z,18.00
2022-11-16T10:21:46.580Z,18.00
2022-11-16T10:24:34.621Z,17.10
2022-11-16T10:27:34.620Z,16.50
2022-11-16T10:30:10.712Z,15.40
2022-11-16T10:32:45.139Z,15.20
2022-11-16T10:35:20.029Z,15.30
2022-11-16T10:37:50.978Z,15.30
2022-11-16T10:40:23.332Z,16.00
2022-11-16T10:43:02.312Z,16.80
2022-11-16T10:45:39.721Z,17.60
2022-11-16T10:48:19.317Z,17.40
2022-11-16T10:50:51.357Z,18.20
2022-11-16T10:53:29.271Z,18.70
2022-11-16T10:56:13.713Z,18.30
2022-11-16T10:58:53.660Z,18.40
2022-11-16T11:01:36.554Z,17.80
2022-11-16T11:04:17.794Z,16.70
2022-11-16T11:06:49.635Z,16.30
2022-11-16T11:09:28.354Z,15.80
2022-11-16T11:12:21.533Z,15.10
2022-11-16T11:15:05.853Z,15.00
2022-11-16T11:17:35.712Z,14.80
2022-11-16T11:20:07.580Z,14.70
2022-11-16T11:22:48.419Z,14.60
2022-11-16T11:25:23.098Z,14.60
2022-11-16T11:27:52.380Z,14.40
2022-11-16T11:30:22.192Z,14.30
2022-11-16T11:32:53.070Z,14.30
2022-11-16T11:35:26.342Z,14.30
2022-11-16T11:38:02.180Z,14.30
2022-11-16T11:40:33.711Z,14.40
2022-11-16T11:43:04.526Z,14.40
2022-11-16T11:45:48.283Z,14.40
2022-11-16T11:48:31.283Z,14.30
2022-11-16T11:51:03.697Z,14.20
2022-11-16T11:53:45.337Z,14.40
2022-11-16T11:56:15.499Z,15.50
2022-11-16T11:58:45.257Z,16.70
2022-11-16T12:01:32.541Z,18.00
2022-11-16T12:04:37.506Z,19.10
2022-11-16T12:07:16.147Z,19.60
2022-11-16T12:09:54.551Z,20.00
2022-11-16T12:12:36.513Z,20.00
2022-11-16T12:15:29.760Z,19.90
2022-11-16T12:18:12.073Z,20.20
2022-11-16T12:20:50.297Z,19.70
2022-11-16T12:23:42.911Z,19.30
2022-11-16T12:26:23.018Z,18.50
2022-11-16T12:29:07.699Z,18.40
2022-11-16T12:31:52.700Z,18.40
2022-11-16T12:34:31.901Z,18.50
2022-11-16T12:37:07.020Z,18.30
2022-11-16T12:39:36.991Z,17.80
2022-11-16T12:42:28.511Z,17.40
2022-11-16T12:45:13.271Z,17.40
2022-11-16T12:48:18.073Z,17.70
2022-11-16T12:50:58.332Z,17.60
2022-11-16T12:54:11.480Z,18.00
2022-11-16T12:56:49.258Z,18.50
2022-11-16T12:59:42.459Z,18.30
2022-11-16T13:02:23.218Z,17.60
2022-11-16T13:04:58.580Z,17.20
2022-11-16T13:07:28.288Z,16.80
2022-11-16T13:10:04.180Z,16.30
2022-11-16T13:12:33.859Z,15.90
2022-11-16T13:15:05.519Z,15.80
2022-11-16T13:17:38.761Z,15.90
2022-11-16T13:20:26.136Z,16.30
2022-11-16T13:23:01.240Z,16.70
2022-11-16T13:25:37.871Z,17.10
2022-11-16T13:28:15.696Z,17.40
2022-11-16T13:30:58.216Z,17.60
2022-11-16T13:33:40.182Z,17.50
2022-11-16T13:36:45.356Z,16.90
2022-11-16T13:39:21.947Z,16.50
2022-11-16T13:41:52.870Z,15.80
2022-11-16T13:44:30.071Z,15.40
2022-11-16T13:47:04.754Z,15.10
2022-11-16T13:49:36.917Z,15.00
2022-11-16T13:52:26.642Z,15.70
2022-11-16T13:54:59.371Z,16.70
2022-11-16T13:57:31.123Z,17.40
2022-11-16T14:00:12.483Z,17.70
2022-11-16T14:02:43.496Z,18.10
2022-11-16T14:05:39.377Z,17.80
2022-11-16T14:08:41.422Z,18.00
2022-11-16T14:11:32.183Z,17.80
2022-11-16T14:14:01.621Z,17.40
2022-11-16T14:16:56.841Z,16.90
2022-11-16T14:19:56.380Z,16.40
2022-11-16T14:23:00.399Z,17.00
2022-11-16T14:25:38.851Z,17.40
2022-11-16T14:28:39.511Z,17.20
2022-11-16T14:31:17.176Z,17.10
2022-11-16T14:33:52.202Z,16.50
2022-11-16T14:36:37.078Z,16.00
